sensor_id;sensor_type;location;lat;lon;timestamp;P1;durP1;ratioP1;P2;durP2;ratioP2
18340;SDS011;9296;48.084;16.352;2024-01-15T00:00:04;16.13;;;6.47;;
18340;SDS011;9296;48.084;16.352;2024-01-15T00:02:43;12.13;;;6.20;;
18340;SDS011;9296;48.084;16.352;2024-01-15T00:05:17;15.17;;;6.73;;
18340;SDS011;9296;48.084;16.352;2024-01-15T00:07:46;14.40;;;6.70;;
18340;SDS011;9296;48.084;16.352;2024-01-15T00:10:19;15.47;;;7.00;;
18340;SDS011;9296;48.084;16.352;2024-01-15T00:12:48;14.07;;;7.47;;
18340;SDS011;9296;48.084;16.352;2024-01-15T00:15:19;13.37;;;6.30;;
18340;SDS011;9296;48.084;16.352;2024-01-15T00:17:59;13.83;;;5.90;;
18340;SDS011;9296;48.084;16.352;2024-01-15T00:20:27;12.40;;;6.07;;
18340;SDS011;9296;48.084;16.352;2024-01-15T00:22:56;12.47;;;5.67;;
18340;SDS011;9296;48.084;16.352;2024-01-15T00:25:26;12.90;;;5.93;;
18340;SDS011;9296;48.084;16.352;2024-01-15T00:27:54;13.23;;;6.30;;
18340;SDS011;9296;48.084;16.352;2024-01-15T00:30:24;14.53;;;6.30;;
18340;SDS011;9296;48.084;16.352;2024-01-15T00:32:59;11.03;;;5.83;;
18340;SDS011;9296;48.084;16.352;2024-01-15T00:35:28;13.30;;;5.60;;
18340;SDS011;9296;48.084;16.352;2024-01-15T00:37:57;11.47;;;5.37;;
18340;SDS011;9296;48.084;16.352;2024-01-15T00:40:25;11.77;;;5.90;;
18340;SDS011;9296;48.084;16.352;2024-01-15T00:42:55;13.57;;;5.80;;
18340;SDS011;9296;48.084;16.352;2024-01-15T00:45:31;13.40;;;5.90;;
18340;SDS011;9296;48.084;16.352;2024-01-15T00:48:08;13.57;;;5.73;;
18340;SDS011;9296;48.084;16.352;2024-01-15T00:50:36;12.57;;;5.67;;
18340;SDS011;9296;48.084;16.352;2024-01-15T00:53:05;11.13;;;5.40;;
18340;SDS011;9296;48.084;16.352;2024-01-15T00:55:41;11.60;;;5.43;;
18340;SDS011;9296;48.084;16.352;2024-01-15T00:58:11;12.83;;;5.97;;
18340;SDS011;9296;48.084;16.352;2024-01-15T01:00:50;13.40;;;5.67;;
18340;SDS011;9296;48.084;16.352;2024-01-15T01:03:27;15.70;;;6.50;;
18340;SDS011;9296;48.084;16.352;2024-01-15T01:06:07;15.43;;;7.00;;
18340;SDS011;9296;48.084;16.352;2024-01-15T01:08:39;13.37;;;6.27;;
18340;SDS011;9296;48.084;16.352;2024-01-15T01:11:15;12.93;;;6.80;;
18340;SDS011;9296;48.084;16.352;2024-01-15T01:13:43;13.27;;;6.10;;
18340;SDS011;9296;48.084;16.352;2024-01-15T01:16:16;13.60;;;6.37;;
18340;SDS011;9296;48.084;16.352;2024-01-15T01:18:45;13.70;;;6.80;;
18340;SDS011;9296;48.084;16.352;2024-01-15T01:21:13;12.47;;;6.40;;
18340;SDS011;9296;48.084;16.352;2024-01-15T01:23:43;13.13;;;6.87;;
18340;SDS011;9296;48.084;16.352;2024-01-15T01:26:15;12.27;;;6.20;;
18340;SDS011;9296;48.084;16.352;2024-01-15T01:28:46;12.83;;;6.10;;
18340;SDS011;9296;48.084;16.352;2024-01-15T01:31:22;13.23;;;6.60;;
18340;SDS011;9296;48.084;16.352;2024-01-15T01:33:51;13.33;;;6.43;;
18340;SDS011;9296;48.084;16.352;2024-01-15T01:36:18;13.73;;;6.40;;
18340;SDS011;9296;48.084;16.352;2024-01-15T01:38:48;14.07;;;6.70;;
18340;SDS011;9296;48.084;16.352;2024-01-15T01:41:17;11.50;;;5.80;;
18340;SDS011;9296;48.084;16.352;2024-01-15T01:46:38;14.73;;;6.33;;
18340;SDS011;9296;48.084;16.352;2024-01-15T01:49:10;14.57;;;6.17;;
18340;SDS011;9296;48.084;16.352;2024-01-15T01:51:38;12.40;;;6.33;;
18340;SDS011;9296;48.084;16.352;2024-01-15T01:54:13;12.70;;;6.53;;
18340;SDS011;9296;48.084;16.352;2024-01-15T01:57:06;11.70;;;6.20;;
18340;SDS011;9296;48.084;16.352;2024-01-15T01:59:41;14.20;;;6.50;;
18340;SDS011;9296;48.084;16.352;2024-01-15T02:02:23;12.40;;;6.40;;
18340;SDS011;9296;48.084;16.352;2024-01-15T02:05:06;13.17;;;6.77;;
18340;SDS011;9296;48.084;16.352;2024-01-15T02:07:37;16.10;;;6.80;;
18340;SDS011;9296;48.084;16.352;2024-01-15T02:10:06;14.07;;;6.70;;
18340;SDS011;9296;48.084;16.352;2024-01-15T02:12:35;11.63;;;6.60;;
18340;SDS011;9296;48.084;16.352;2024-01-15T02:15:08;11.97;;;6.33;;
18340;SDS011;9296;48.084;16.352;2024-01-15T02:18:00;13.87;;;7.20;;
18340;SDS011;9296;48.084;16.352;2024-01-15T02:20:31;12.77;;;6.63;;
18340;SDS011;9296;48.084;16.352;2024-01-15T02:23:09;14.23;;;7.03;;
18340;SDS011;9296;48.084;16.352;2024-01-15T02:25:42;14.50;;;6.93;;
18340;SDS011;9296;48.084;16.352;2024-01-15T02:28:19;13.80;;;7.50;;
18340;SDS011;9296;48.084;16.352;2024-01-15T02:30:53;12.60;;;6.33;;
18340;SDS011;9296;48.084;16.352;2024-01-15T02:33:24;14.27;;;7.37;;
18340;SDS011;9296;48.084;16.352;2024-01-15T02:35:52;15.37;;;6.73;;
18340;SDS011;9296;48.084;16.352;2024-01-15T02:38:23;14.53;;;6.93;;
18340;SDS011;9296;48.084;16.352;2024-01-15T02:40:52;13.60;;;6.53;;
18340;SDS011;9296;48.084;16.352;2024-01-15T02:43:23;14.20;;;6.80;;
18340;SDS011;9296;48.084;16.352;2024-01-15T02:45:59;11.93;;;6.30;;
18340;SDS011;9296;48.084;16.352;2024-01-15T02:48:31;13.90;;;6.70;;
18340;SDS011;9296;48.084;16.352;2024-01-15T02:51:02;12.80;;;6.23;;
18340;SDS011;9296;48.084;16.352;2024-01-15T02:53:38;12.67;;;6.20;;
18340;SDS011;9296;48.084;16.352;2024-01-15T02:56:09;13.13;;;6.60;;
18340;SDS011;9296;48.084;16.352;2024-01-15T02:58:36;14.53;;;6.60;;
18340;SDS011;9296;48.084;16.352;2024-01-15T03:01:05;15.83;;;7.30;;
18340;SDS011;9296;48.084;16.352;2024-01-15T03:03:34;12.57;;;6.33;;
18340;SDS011;9296;48.084;16.352;2024-01-15T03:06:02;14.17;;;6.83;;
18340;SDS011;9296;48.084;16.352;2024-01-15T03:08:32;13.80;;;6.90;;
18340;SDS011;9296;48.084;16.352;2024-01-15T03:11:05;16.00;;;6.57;;
18340;SDS011;9296;48.084;16.352;2024-01-15T03:13:35;14.23;;;6.60;;
18340;SDS011;9296;48.084;16.352;2024-01-15T03:16:04;15.33;;;6.97;;
18340;SDS011;9296;48.084;16.352;2024-01-15T03:18:47;15.27;;;6.57;;
18340;SDS011;9296;48.084;16.352;2024-01-15T03:21:20;13.57;;;6.37;;
18340;SDS011;9296;48.084;16.352;2024-01-15T03:27:03;12.27;;;5.83;;
18340;SDS011;9296;48.084;16.352;2024-01-15T03:29:33;9.97;;;5.20;;
18340;SDS011;9296;48.084;16.352;2024-01-15T03:32:05;12.47;;;4.80;;
18340;SDS011;9296;48.084;16.352;2024-01-15T03:34:37;10.13;;;4.73;;
18340;SDS011;9296;48.084;16.352;2024-01-15T03:37:05;9.03;;;4.03;;
18340;SDS011;9296;48.084;16.352;2024-01-15T03:39:41;9.60;;;4.27;;
18340;SDS011;9296;48.084;16.352;2024-01-15T03:42:11;11.10;;;4.50;;
18340;SDS011;9296;48.084;16.352;2024-01-15T03:44:40;9.20;;;3.97;;
18340;SDS011;9296;48.084;16.352;2024-01-15T03:47:11;8.53;;;4.07;;
18340;SDS011;9296;48.084;16.352;2024-01-15T03:49:39;9.13;;;4.33;;
18340;SDS011;9296;48.084;16.352;2024-01-15T03:52:07;9.90;;;4.87;;
18340;SDS011;9296;48.084;16.352;2024-01-15T03:54:35;11.03;;;4.60;;
18340;SDS011;9296;48.084;16.352;2024-01-15T03:57:03;10.07;;;4.53;;
18340;SDS011;9296;48.084;16.352;2024-01-15T03:59:32;9.93;;;4.67;;
18340;SDS011;9296;48.084;16.352;2024-01-15T04:02:03;10.50;;;4.70;;
18340;SDS011;9296;48.084;16.352;2024-01-15T04:04:31;9.63;;;4.50;;
18340;SDS011;9296;48.084;16.352;2024-01-15T04:07:00;10.70;;;4.80;;
18340;SDS011;9296;48.084;16.352;2024-01-15T04:09:28;8.83;;;4.63;;
18340;SDS011;9296;48.084;16.352;2024-01-15T04:11:56;8.70;;;4.63;;
18340;SDS011;9296;48.084;16.352;2024-01-15T04:14:23;10.40;;;4.57;;
18340;SDS011;9296;48.084;16.352;2024-01-15T04:16:55;11.87;;;5.33;;
18340;SDS011;9296;48.084;16.352;2024-01-15T04:19:26;9.03;;;4.13;;
18340;SDS011;9296;48.084;16.352;2024-01-15T04:21:58;9.67;;;4.93;;
18340;SDS011;9296;48.084;16.352;2024-01-15T04:24:34;7.63;;;4.50;;
18340;SDS011;9296;48.084;16.352;2024-01-15T04:27:07;8.80;;;4.53;;
18340;SDS011;9296;48.084;16.352;2024-01-15T04:29:34;7.17;;;4.60;;
18340;SDS011;9296;48.084;16.352;2024-01-15T04:35:24;8.57;;;4.67;;
18340;SDS011;9296;48.084;16.352;2024-01-15T04:37:56;9.43;;;4.43;;
18340;SDS011;9296;48.084;16.352;2024-01-15T04:40:42;9.20;;;4.57;;
18340;SDS011;9296;48.084;16.352;2024-01-15T04:43:10;6.70;;;3.87;;
18340;SDS011;9296;48.084;16.352;2024-01-15T04:45:38;8.53;;;4.20;;
18340;SDS011;9296;48.084;16.352;2024-01-15T04:48:20;10.33;;;3.87;;
18340;SDS011;9296;48.084;16.352;2024-01-15T04:51:08;8.87;;;3.80;;
18340;SDS011;9296;48.084;16.352;2024-01-15T04:53:36;7.70;;;4.20;;
18340;SDS011;9296;48.084;16.352;2024-01-15T04:56:10;7.63;;;3.90;;
18340;SDS011;9296;48.084;16.352;2024-01-15T04:58:39;6.80;;;3.80;;
18340;SDS011;9296;48.084;16.352;2024-01-15T05:01:08;9.23;;;4.27;;
18340;SDS011;9296;48.084;16.352;2024-01-15T05:03:36;7.87;;;3.90;;
18340;SDS011;9296;48.084;16.352;2024-01-15T05:06:09;6.77;;;3.83;;
18340;SDS011;9296;48.084;16.352;2024-01-15T05:08:56;8.03;;;3.60;;
18340;SDS011;9296;48.084;16.352;2024-01-15T05:11:25;7.40;;;3.80;;
18340;SDS011;9296;48.084;16.352;2024-01-15T05:14:06;7.90;;;4.70;;
18340;SDS011;9296;48.084;16.352;2024-01-15T05:16:46;10.03;;;4.20;;
18340;SDS011;9296;48.084;16.352;2024-01-15T05:19:17;8.60;;;4.50;;
18340;SDS011;9296;48.084;16.352;2024-01-15T05:21:47;12.87;;;5.20;;
18340;SDS011;9296;48.084;16.352;2024-01-15T05:27:21;8.63;;;4.47;;
18340;SDS011;9296;48.084;16.352;2024-01-15T05:29:49;9.13;;;4.60;;
18340;SDS011;9296;48.084;16.352;2024-01-15T05:32:19;8.70;;;4.17;;
18340;SDS011;9296;48.084;16.352;2024-01-15T05:34:48;9.50;;;4.63;;
18340;SDS011;9296;48.084;16.352;2024-01-15T05:37:18;7.77;;;4.17;;
18340;SDS011;9296;48.084;16.352;2024-01-15T05:39:47;9.03;;;4.50;;
18340;SDS011;9296;48.084;16.352;2024-01-15T05:42:14;8.87;;;4.70;;
18340;SDS011;9296;48.084;16.352;2024-01-15T05:44:42;6.67;;;3.90;;
18340;SDS011;9296;48.084;16.352;2024-01-15T05:47:24;7.27;;;4.10;;
18340;SDS011;9296;48.084;16.352;2024-01-15T05:49:55;8.60;;;4.10;;
18340;SDS011;9296;48.084;16.352;2024-01-15T05:58:24;10.70;;;5.57;;
18340;SDS011;9296;48.084;16.352;2024-01-15T06:01:06;12.13;;;5.93;;
18340;SDS011;9296;48.084;16.352;2024-01-15T06:03:34;12.67;;;5.57;;
18340;SDS011;9296;48.084;16.352;2024-01-15T06:06:03;13.07;;;6.30;;
18340;SDS011;9296;48.084;16.352;2024-01-15T06:08:34;10.73;;;5.97;;
18340;SDS011;9296;48.084;16.352;2024-01-15T06:11:04;13.00;;;6.07;;
18340;SDS011;9296;48.084;16.352;2024-01-15T06:13:40;11.40;;;6.03;;
18340;SDS011;9296;48.084;16.352;2024-01-15T06:16:13;12.97;;;6.17;;
18340;SDS011;9296;48.084;16.352;2024-01-15T06:18:41;12.80;;;6.57;;
18340;SDS011;9296;48.084;16.352;2024-01-15T06:21:09;14.07;;;6.60;;
18340;SDS011;9296;48.084;16.352;2024-01-15T06:23:56;12.30;;;6.13;;
18340;SDS011;9296;48.084;16.352;2024-01-15T06:26:24;12.33;;;6.33;;
18340;SDS011;9296;48.084;16.352;2024-01-15T06:28:56;11.47;;;6.60;;
18340;SDS011;9296;48.084;16.352;2024-01-15T06:31:29;13.97;;;7.23;;
18340;SDS011;9296;48.084;16.352;2024-01-15T06:33:56;11.30;;;5.73;;
18340;SDS011;9296;48.084;16.352;2024-01-15T06:36:24;13.87;;;6.20;;
18340;SDS011;9296;48.084;16.352;2024-01-15T06:38:52;12.67;;;6.43;;
18340;SDS011;9296;48.084;16.352;2024-01-15T06:41:19;12.10;;;5.83;;
18340;SDS011;9296;48.084;16.352;2024-01-15T06:43:47;10.10;;;5.60;;
18340;SDS011;9296;48.084;16.352;2024-01-15T06:46:21;11.83;;;6.10;;
18340;SDS011;9296;48.084;16.352;2024-01-15T06:48:50;9.77;;;5.00;;
18340;SDS011;9296;48.084;16.352;2024-01-15T06:51:17;11.03;;;6.23;;
18340;SDS011;9296;48.084;16.352;2024-01-15T06:54:03;10.50;;;5.30;;
18340;SDS011;9296;48.084;16.352;2024-01-15T06:56:31;10.13;;;5.50;;
18340;SDS011;9296;48.084;16.352;2024-01-15T06:59:01;9.00;;;5.07;;
18340;SDS011;9296;48.084;16.352;2024-01-15T07:01:34;12.00;;;5.97;;
18340;SDS011;9296;48.084;16.352;2024-01-15T07:04:02;10.93;;;5.30;;
18340;SDS011;9296;48.084;16.352;2024-01-15T07:06:34;10.47;;;5.70;;
18340;SDS011;9296;48.084;16.352;2024-01-15T07:09:07;9.13;;;4.73;;
18340;SDS011;9296;48.084;16.352;2024-01-15T07:11:38;9.03;;;5.20;;
18340;SDS011;9296;48.084;16.352;2024-01-15T07:14:19;9.40;;;5.20;;
18340;SDS011;9296;48.084;16.352;2024-01-15T07:19:41;9.00;;;4.80;;
18340;SDS011;9296;48.084;16.352;2024-01-15T07:22:22;8.97;;;5.03;;
18340;SDS011;9296;48.084;16.352;2024-01-15T07:25:28;7.57;;;4.33;;
18340;SDS011;9296;48.084;16.352;2024-01-15T07:27:59;8.83;;;4.20;;
18340;SDS011;9296;48.084;16.352;2024-01-15T07:30:26;9.00;;;4.90;;
18340;SDS011;9296;48.084;16.352;2024-01-15T07:33:07;7.43;;;4.20;;
18340;SDS011;9296;48.084;16.352;2024-01-15T07:35:41;9.63;;;4.40;;
18340;SDS011;9296;48.084;16.352;2024-01-15T07:38:09;9.23;;;3.97;;
18340;SDS011;9296;48.084;16.352;2024-01-15T07:43:29;8.03;;;4.23;;
18340;SDS011;9296;48.084;16.352;2024-01-15T07:46:10;7.53;;;4.43;;
18340;SDS011;9296;48.084;16.352;2024-01-15T07:48:39;8.00;;;3.53;;
18340;SDS011;9296;48.084;16.352;2024-01-15T07:51:08;8.23;;;4.27;;
18340;SDS011;9296;48.084;16.352;2024-01-15T07:53:35;8.17;;;4.43;;
18340;SDS011;9296;48.084;16.352;2024-01-15T07:56:21;8.13;;;3.83;;
18340;SDS011;9296;48.084;16.352;2024-01-15T07:58:52;8.37;;;4.20;;
18340;SDS011;9296;48.084;16.352;2024-01-15T08:01:20;8.67;;;4.30;;
18340;SDS011;9296;48.084;16.352;2024-01-15T08:12:28;6.97;;;4.20;;
18340;SDS011;9296;48.084;16.352;2024-01-15T08:14:56;7.93;;;3.93;;
18340;SDS011;9296;48.084;16.352;2024-01-15T08:17:24;7.37;;;3.70;;
18340;SDS011;9296;48.084;16.352;2024-01-15T08:19:57;7.23;;;4.40;;
18340;SDS011;9296;48.084;16.352;2024-01-15T08:22:25;7.77;;;4.40;;
18340;SDS011;9296;48.084;16.352;2024-01-15T08:30:57;8.40;;;3.90;;
18340;SDS011;9296;48.084;16.352;2024-01-15T08:36:26;6.78;;;3.83;;
18340;SDS011;9296;48.084;16.352;2024-01-15T09:25:25;4.40;;;2.70;;
18340;SDS011;9296;48.084;16.352;2024-01-15T09:30:44;5.90;;;2.47;;
18340;SDS011;9296;48.084;16.352;2024-01-15T09:45:23;3.90;;;2.63;;
18340;SDS011;9296;48.084;16.352;2024-01-15T09:59:10;4.30;;;2.67;;
18340;SDS011;9296;48.084;16.352;2024-01-15T10:24:37;5.95;;;2.60;;
18340;SDS011;9296;48.084;16.352;2024-01-15T10:27:08;3.58;;;2.47;;
18340;SDS011;9296;48.084;16.352;2024-01-15T10:29:58;5.18;;;2.90;;
18340;SDS011;9296;48.084;16.352;2024-01-15T10:32:44;3.13;;;2.40;;
18340;SDS011;9296;48.084;16.352;2024-01-15T10:41:46;4.07;;;2.67;;
18340;SDS011;9296;48.084;16.352;2024-01-15T10:44:14;6.03;;;2.88;;
18340;SDS011;9296;48.084;16.352;2024-01-15T10:46:56;4.70;;;2.60;;
18340;SDS011;9296;48.084;16.352;2024-01-15T10:49:52;5.93;;;2.63;;
18340;SDS011;9296;48.084;16.352;2024-01-15T11:00:43;6.15;;;3.10;;
18340;SDS011;9296;48.084;16.352;2024-01-15T11:15:20;7.90;;;3.47;;
18340;SDS011;9296;48.084;16.352;2024-01-15T11:21:24;5.15;;;3.10;;
18340;SDS011;9296;48.084;16.352;2024-01-15T11:23:53;5.38;;;2.92;;
18340;SDS011;9296;48.084;16.352;2024-01-15T11:26:29;6.00;;;3.22;;
18340;SDS011;9296;48.084;16.352;2024-01-15T11:34:51;4.72;;;2.85;;
18340;SDS011;9296;48.084;16.352;2024-01-15T11:37:21;5.63;;;3.30;;
18340;SDS011;9296;48.084;16.352;2024-01-15T11:40:00;8.85;;;3.60;;
18340;SDS011;9296;48.084;16.352;2024-01-15T11:45:42;5.82;;;3.13;;
18340;SDS011;9296;48.084;16.352;2024-01-15T11:48:10;3.83;;;2.42;;
18340;SDS011;9296;48.084;16.352;2024-01-15T11:50:40;3.42;;;2.58;;
18340;SDS011;9296;48.084;16.352;2024-01-15T11:53:40;4.32;;;2.40;;
18340;SDS011;9296;48.084;16.352;2024-01-15T11:59:14;3.95;;;2.70;;
18340;SDS011;9296;48.084;16.352;2024-01-15T12:01:41;5.65;;;3.05;;
18340;SDS011;9296;48.084;16.352;2024-01-15T12:04:09;6.13;;;2.88;;
18340;SDS011;9296;48.084;16.352;2024-01-15T12:06:37;4.63;;;3.05;;
18340;SDS011;9296;48.084;16.352;2024-01-15T12:09:10;4.03;;;2.40;;
18340;SDS011;9296;48.084;16.352;2024-01-15T12:11:38;3.25;;;2.17;;
18340;SDS011;9296;48.084;16.352;2024-01-15T12:14:14;4.07;;;2.42;;
18340;SDS011;9296;48.084;16.352;2024-01-15T12:16:42;5.53;;;2.40;;
18340;SDS011;9296;48.084;16.352;2024-01-15T12:19:10;4.45;;;2.78;;
18340;SDS011;9296;48.084;16.352;2024-01-15T12:21:38;4.15;;;2.30;;
18340;SDS011;9296;48.084;16.352;2024-01-15T12:24:08;3.03;;;2.22;;
18340;SDS011;9296;48.084;16.352;2024-01-15T12:29:39;4.13;;;2.10;;
18340;SDS011;9296;48.084;16.352;2024-01-15T12:32:06;5.10;;;2.63;;
18340;SDS011;9296;48.084;16.352;2024-01-15T12:34:34;3.97;;;2.42;;
18340;SDS011;9296;48.084;16.352;2024-01-15T12:37:01;2.97;;;2.30;;
18340;SDS011;9296;48.084;16.352;2024-01-15T12:39:30;4.50;;;2.53;;
18340;SDS011;9296;48.084;16.352;2024-01-15T12:45:01;3.25;;;2.22;;
18340;SDS011;9296;48.084;16.352;2024-01-15T12:47:29;2.55;;;1.90;;
18340;SDS011;9296;48.084;16.352;2024-01-15T12:49:57;5.15;;;1.90;;
18340;SDS011;9296;48.084;16.352;2024-01-15T12:52:26;4.45;;;1.92;;
18340;SDS011;9296;48.084;16.352;2024-01-15T12:54:55;3.92;;;1.77;;
18340;SDS011;9296;48.084;16.352;2024-01-15T12:57:23;3.17;;;2.00;;
18340;SDS011;9296;48.084;16.352;2024-01-15T12:59:50;3.78;;;1.90;;
18340;SDS011;9296;48.084;16.352;2024-01-15T13:02:18;3.67;;;2.10;;
18340;SDS011;9296;48.084;16.352;2024-01-15T13:04:47;2.63;;;1.63;;
18340;SDS011;9296;48.084;16.352;2024-01-15T13:10:06;3.15;;;1.67;;
18340;SDS011;9296;48.084;16.352;2024-01-15T13:12:34;3.92;;;1.38;;
18340;SDS011;9296;48.084;16.352;2024-01-15T13:15:15;2.97;;;1.75;;
18340;SDS011;9296;48.084;16.352;2024-01-15T13:17:55;6.43;;;2.03;;
18340;SDS011;9296;48.084;16.352;2024-01-15T13:20:23;3.08;;;1.63;;
18340;SDS011;9296;48.084;16.352;2024-01-15T13:22:52;2.22;;;1.60;;
18340;SDS011;9296;48.084;16.352;2024-01-15T13:25:46;2.13;;;1.50;;
18340;SDS011;9296;48.084;16.352;2024-01-15T13:28:15;2.92;;;1.75;;
18340;SDS011;9296;48.084;16.352;2024-01-15T13:30:48;2.22;;;1.50;;
18340;SDS011;9296;48.084;16.352;2024-01-15T13:36:21;2.53;;;1.90;;
18340;SDS011;9296;48.084;16.352;2024-01-15T13:38:48;4.45;;;1.67;;
18340;SDS011;9296;48.084;16.352;2024-01-15T13:44:21;3.03;;;1.92;;
18340;SDS011;9296;48.084;16.352;2024-01-15T13:46:49;4.47;;;1.80;;
18340;SDS011;9296;48.084;16.352;2024-01-15T13:49:32;2.65;;;1.50;;
18340;SDS011;9296;48.084;16.352;2024-01-15T13:52:32;2.38;;;1.60;;
18340;SDS011;9296;48.084;16.352;2024-01-15T13:58:30;2.83;;;1.70;;
18340;SDS011;9296;48.084;16.352;2024-01-15T14:01:00;3.33;;;1.75;;
18340;SDS011;9296;48.084;16.352;2024-01-15T14:03:43;3.97;;;1.70;;
18340;SDS011;9296;48.084;16.352;2024-01-15T14:06:13;3.30;;;1.90;;
18340;SDS011;9296;48.084;16.352;2024-01-15T14:08:50;2.43;;;1.60;;
18340;SDS011;9296;48.084;16.352;2024-01-15T14:11:34;2.83;;;1.60;;
18340;SDS011;9296;48.084;16.352;2024-01-15T14:14:02;3.22;;;1.90;;
18340;SDS011;9296;48.084;16.352;2024-01-15T14:16:50;2.53;;;1.70;;
18340;SDS011;9296;48.084;16.352;2024-01-15T14:19:25;2.35;;;1.30;;
18340;SDS011;9296;48.084;16.352;2024-01-15T14:21:55;3.67;;;2.00;;
18340;SDS011;9296;48.084;16.352;2024-01-15T14:24:24;3.47;;;1.73;;
18340;SDS011;9296;48.084;16.352;2024-01-15T14:27:08;4.30;;;1.73;;
18340;SDS011;9296;48.084;16.352;2024-01-15T14:30:11;3.63;;;1.97;;
18340;SDS011;9296;48.084;16.352;2024-01-15T14:32:57;2.57;;;1.73;;
18340;SDS011;9296;48.084;16.352;2024-01-15T14:35:24;3.67;;;2.10;;
18340;SDS011;9296;48.084;16.352;2024-01-15T14:43:54;3.73;;;1.83;;
18340;SDS011;9296;48.084;16.352;2024-01-15T14:51:50;3.80;;;1.87;;
18340;SDS011;9296;48.084;16.352;2024-01-15T15:21:40;2.00;;;1.30;;
18340;SDS011;9296;48.084;16.352;2024-01-15T15:24:21;3.40;;;1.50;;
18340;SDS011;9296;48.084;16.352;2024-01-15T15:30:10;3.20;;;1.40;;
18340;SDS011;9296;48.084;16.352;2024-01-15T15:32:55;2.30;;;1.40;;
18340;SDS011;9296;48.084;16.352;2024-01-15T15:35:41;5.33;;;1.40;;
18340;SDS011;9296;48.084;16.352;2024-01-15T15:38:30;2.53;;;1.30;;
18340;SDS011;9296;48.084;16.352;2024-01-15T15:41:26;2.37;;;1.53;;
18340;SDS011;9296;48.084;16.352;2024-01-15T15:46:54;2.60;;;1.40;;
18340;SDS011;9296;48.084;16.352;2024-01-15T15:51:47;2.80;;;1.37;;
18340;SDS011;9296;48.084;16.352;2024-01-15T15:54:17;2.57;;;1.43;;
18340;SDS011;9296;48.084;16.352;2024-01-15T16:00:02;2.10;;;1.23;;
18340;SDS011;9296;48.084;16.352;2024-01-15T16:02:35;2.93;;;1.43;;
18340;SDS011;9296;48.084;16.352;2024-01-15T16:05:35;2.57;;;1.40;;
18340;SDS011;9296;48.084;16.352;2024-01-15T16:08:16;3.17;;;1.57;;
18340;SDS011;9296;48.084;16.352;2024-01-15T16:10:51;3.37;;;1.50;;
18340;SDS011;9296;48.084;16.352;2024-01-15T16:13:23;2.27;;;1.37;;
18340;SDS011;9296;48.084;16.352;2024-01-15T16:15:52;2.87;;;1.50;;
18340;SDS011;9296;48.084;16.352;2024-01-15T16:18:19;2.20;;;1.50;;
18340;SDS011;9296;48.084;16.352;2024-01-15T16:20:52;2.87;;;1.10;;
18340;SDS011;9296;48.084;16.352;2024-01-15T16:23:26;1.70;;;1.00;;
18340;SDS011;9296;48.084;16.352;2024-01-15T16:26:05;2.40;;;1.20;;
18340;SDS011;9296;48.084;16.352;2024-01-15T16:28:37;2.33;;;1.30;;
18340;SDS011;9296;48.084;16.352;2024-01-15T16:31:18;1.47;;;0.97;;
18340;SDS011;9296;48.084;16.352;2024-01-15T16:33:52;2.73;;;0.97;;
18340;SDS011;9296;48.084;16.352;2024-01-15T16:36:28;2.67;;;1.00;;
18340;SDS011;9296;48.084;16.352;2024-01-15T16:39:17;1.97;;;0.90;;
18340;SDS011;9296;48.084;16.352;2024-01-15T16:44:38;2.50;;;1.00;;
18340;SDS011;9296;48.084;16.352;2024-01-15T16:47:11;1.63;;;0.73;;
18340;SDS011;9296;48.084;16.352;2024-01-15T16:49:54;1.73;;;1.00;;
18340;SDS011;9296;48.084;16.352;2024-01-15T16:52:31;2.07;;;1.10;;
18340;SDS011;9296;48.084;16.352;2024-01-15T17:14:56;2.40;;;1.13;;
18340;SDS011;9296;48.084;16.352;2024-01-15T17:26:07;1.77;;;1.20;;
18340;SDS011;9296;48.084;16.352;2024-01-15T17:37:15;1.93;;;0.87;;
18340;SDS011;9296;48.084;16.352;2024-01-15T17:45:24;2.13;;;1.10;;
18340;SDS011;9296;48.084;16.352;2024-01-15T17:47:51;2.03;;;1.10;;
18340;SDS011;9296;48.084;16.352;2024-01-15T17:56:18;2.03;;;1.10;;
18340;SDS011;9296;48.084;16.352;2024-01-15T18:07:28;3.60;;;0.90;;
18340;SDS011;9296;48.084;16.352;2024-01-15T18:16:10;1.37;;;0.93;;
18340;SDS011;9296;48.084;16.352;2024-01-15T18:18:56;1.87;;;0.90;;
18340;SDS011;9296;48.084;16.352;2024-01-15T18:21:53;1.37;;;0.90;;
18340;SDS011;9296;48.084;16.352;2024-01-15T18:39:13;1.93;;;1.13;;
18340;SDS011;9296;48.084;16.352;2024-01-15T18:41:43;4.00;;;1.10;;
18340;SDS011;9296;48.084;16.352;2024-01-15T18:47:23;2.50;;;1.30;;
18340;SDS011;9296;48.084;16.352;2024-01-15T18:49:53;2.73;;;1.30;;
18340;SDS011;9296;48.084;16.352;2024-01-15T18:52:44;2.93;;;1.40;;
18340;SDS011;9296;48.084;16.352;2024-01-15T19:03:46;2.57;;;1.20;;
18340;SDS011;9296;48.084;16.352;2024-01-15T19:06:27;1.70;;;1.00;;
18340;SDS011;9296;48.084;16.352;2024-01-15T19:09:13;1.27;;;0.90;;
18340;SDS011;9296;48.084;16.352;2024-01-15T19:17:06;3.37;;;1.60;;
18340;SDS011;9296;48.084;16.352;2024-01-15T19:19:36;6.77;;;2.90;;
18340;SDS011;9296;48.084;16.352;2024-01-15T19:22:31;6.00;;;2.53;;
18340;SDS011;9296;48.084;16.352;2024-01-15T19:25:33;4.63;;;2.23;;
18340;SDS011;9296;48.084;16.352;2024-01-15T19:31:31;2.60;;;1.07;;
18340;SDS011;9296;48.084;16.352;2024-01-15T19:34:12;1.67;;;1.00;;
18340;SDS011;9296;48.084;16.352;2024-01-15T19:51:43;2.70;;;1.30;;
18340;SDS011;9296;48.084;16.352;2024-01-15T19:54:38;2.03;;;1.50;;
18340;SDS011;9296;48.084;16.352;2024-01-15T20:00:25;3.27;;;1.20;;
18340;SDS011;9296;48.084;16.352;2024-01-15T20:11:20;2.50;;;1.90;;
18340;SDS011;9296;48.084;16.352;2024-01-15T20:19:50;2.83;;;1.60;;
18340;SDS011;9296;48.084;16.352;2024-01-15T20:22:38;2.40;;;1.50;;
18340;SDS011;9296;48.084;16.352;2024-01-15T20:33:43;3.97;;;1.70;;
18340;SDS011;9296;48.084;16.352;2024-01-15T20:36:28;3.57;;;2.10;;
18340;SDS011;9296;48.084;16.352;2024-01-15T20:50:10;3.50;;;1.90;;
18340;SDS011;9296;48.084;16.352;2024-01-15T20:53:01;3.30;;;2.10;;
18340;SDS011;9296;48.084;16.352;2024-01-15T20:56:08;3.43;;;1.80;;
18340;SDS011;9296;48.084;16.352;2024-01-15T21:04:12;3.47;;;2.03;;
18340;SDS011;9296;48.084;16.352;2024-01-15T22:02:30;7.00;;;3.87;;
18340;SDS011;9296;48.084;16.352;2024-01-15T22:05:11;8.30;;;2.47;;
18340;SDS011;9296;48.084;16.352;2024-01-15T22:07:41;3.60;;;2.33;;
18340;SDS011;9296;48.084;16.352;2024-01-15T22:10:10;5.23;;;2.40;;
18340;SDS011;9296;48.084;16.352;2024-01-15T22:12:53;2.57;;;2.07;;
18340;SDS011;9296;48.084;16.352;2024-01-15T22:15:44;2.70;;;1.90;;
